Startpagina
METAR-TAF:

METAR-TAF

Vliegvelden :

Toamasina, Madagaskar

breedte: 18-07S, lengte: 049-24E, hoogte: 5 m

Actueel weer

Dit bericht is 23 minuten geleden gemaakt, om 10:00 UTC
Wind 8 kt uit het oostzuidoosten, variërend tussen het oosten en het zuiden
Temperatuur 25°C
Vochtigheid 65%
Druk 1025 hPa
Zicht 10 km of meer
Verspreide wolken op 1700 ft

METAR: FMMT 161000Z 12008KT 090V170 9999 SCT017 K 25/18 Q1025 NOSIG

Tijdstip: 13:23 (10:23 UTC)

Verwachting

Dit bericht is 5 uur en het 23 minuten geleden gemaakt, om 05:00 UTC
Verwachting geldig van 16 om 06 UTC tot 17 om 06 UTC
Wind 12 kt uit het zuidzuidoosten
Zicht: 9000 m
Weinig wolken op 700 ft
Verspreide wolken op 1700 ft
Gebroken wolken op 3300 ft
Tijdelijke
van 16 om 06 UTC tot 16 om 15 UTC
Zicht: 3500 m
regenbuien
Kans 40% :
Tijdelijke
van 16 om 21 UTC tot 17 om 06 UTC
Zicht: 4000 m
regenbuien

TAF: FMMT 160500Z 1606/1706 16012KT 9000 FEW007 SCT017 BKN033 TEMPO 1606/1615 3500 SHRA PROB40 TEMPO 1621/1706 4000 SHRA

Waarnemingen en weersverwachtingen van meer dan 4000 vliegvelden (METAR en TAF).

De beschikbare stations zijn de gele en rode punten op de kaart.

Ga met uw muis naar het station om de naam te zien.

Klik dan om waarnemingen en weersverwachtingen te zien.

kaart wijzigen: klik op de groene knoppen met een zwart kruis om in te zoomen, op de groene knop met een streepje om uit te zoomen of op de groene pijlen voor aangrenzende kaarten.


METAR-TAF: